Pagrindinis puslapis
METAR-TAF:

METAR-TAF

Oro uostai :

Florianopolis, Santa Katarina, Brazilija

platuma: 27-40S, ilguma: 048-33W, Aukštis: 5 m

Dabartinis oras

Ataskaita buvo paskelbta 38 minutes, ne 01:00 UTC
Vėjas 5 kt iš Šiaurės/Šiaurės Rytų
Temperatūra 28°C
Drėgmė 79%
Slėgis 1016 hPa
Matomumas 10 km arba daugiau
Mažai debesys ne aukštis 1700 ft
Su prošvaistėmis ne aukštis 3500 ft

METAR: SBFL 200100Z 02005KT 9999 FEW017 BKN035 28/24 Q1016

Laikas: 22:38 (01:38 UTC)

Prognozė

Ataskaita buvo paskelbta 4 valandos ir 38 minutes, ne 21:00 UTC
Prognozė galioja nuo 20 metu 00 UTC su 20 metu 24 UTC
Vėjas 5 kt iš Šiaurės/Šiaurės Rytų
Matomumas 10 km arba daugiau
Išsisklaidę debesys ne aukštis 2500 ft
Tapsmas
nuo 20 metu 09 UTC su 20 metu 11 UTC
Su prošvaistėmis ne aukštis 1700 ft
Tapsmas
nuo 20 metu 15 UTC su 20 metu 17 UTC
Vėjas 11 kt iš Rytų/Šiaurės Rytų

TAF: SBFL 192100Z 2000/2024 03005KT 9999 SCT025 TN25/2007Z TX31/2017Z BECMG 2009/2011 BKN017 BECMG 2015/2017 06011KT RMK PDU

Orai ataskaitas ir orų prognozės (METAR, TAF).

turimą stotys yra geltonos ir raudonos taškus žemėlapyje.

Perkelti pele per norėdami pamatyti stoties vardą.

Tada spustelėkite, norėdami matyti oro stebėjimo ir prognozės.

Norėdami pakeisti žemėlapį: spustelėkite ant žalios mygtukų su juodo kryžiaus žemyn,; žalią mygtuką su brūkšneliu, jei norite nutolinti; arba žalių rodyklių gretimoms žemėlapius.


METAR-TAF: